Time;durP1;ratioP1;P1;durP2;ratioP2;P2;SDS_P1;SDS_P2;PMS_P1;PMS_P2;Temp;Humidity;BMP_temperature;BMP_pressure;BME280_temperature;BME280_humidity;BME280_pressure;Samples;Min_cycle;Max_cycle;Signal;HPM_P1;HPM_P2
2022/06/18 00:00:19;;;;;;;;;;;17.60;99.90;;;16.55;88.07;101518.78;4920353;28;20079;-79
2022/06/18 00:02:45;;;;;;;7.68;2.58;;;17.50;99.90;;;16.50;88.09;101513.75;4984094;23;20290;-75
2022/06/18 00:05:16;;;;;;;7.55;2.53;;;17.40;99.90;;;16.46;88.54;101506.88;4919570;28;20483;-75
2022/06/18 00:08:14;;;;;;;11.20;2.70;;;17.40;99.90;;;16.41;88.73;101500.97;4940058;28;20499;-75
2022/06/18 00:10:41;;;;;;;7.18;2.70;;;17.40;99.90;;;16.37;88.29;101497.66;4938097;28;20065;-76
2022/06/18 00:13:40;;;;;;;6.00;2.65;;;17.20;99.90;;;16.39;88.48;101501.09;4937925;28;20026;-75
2022/06/18 00:16:12;;;;;;;7.15;2.83;;;17.30;99.90;;;16.37;88.78;101502.09;4928254;28;20034;-75
2022/06/18 00:18:38;;;;;;;5.97;2.75;;;17.30;99.90;;;16.40;88.38;101499.28;4941084;28;20086;-75
2022/06/18 00:21:08;;;;;;;5.40;2.75;;;17.30;99.90;;;16.41;88.11;101495.66;4905127;28;20110;-75
2022/06/18 00:23:39;;;;;;;8.10;2.50;;;17.30;99.90;;;16.43;87.14;101496.41;4943400;28;20027;-75
2022/06/18 00:26:05;;;;;;;5.55;2.35;;;17.30;99.90;;;16.39;87.58;101489.56;4918229;28;20034;-76
2022/06/18 00:28:32;;;;;;;4.82;2.45;;;17.20;99.90;;;16.28;88.64;101484.03;4946081;28;20030;-76
2022/06/18 00:30:59;;;;;;;10.70;2.50;;;17.20;99.90;;;16.17;89.54;101480.19;4919541;28;20023;-75
2022/06/18 00:33:27;;;;;;;10.38;2.97;;;17.10;99.90;;;16.16;89.15;101472.34;4922986;28;20039;-75
2022/06/18 00:35:59;;;;;;;7.28;2.63;;;17.10;99.90;;;16.11;89.01;101464.63;4947327;28;20061;-75
2022/06/18 00:38:29;;;;;;;4.63;2.38;;;17.00;99.90;;;16.05;89.85;101467.66;4917888;28;20551;-75
2022/06/18 00:40:57;;;;;;;8.95;2.50;;;17.00;99.90;;;15.98;89.71;101459.19;4929941;28;20510;-75
2022/06/18 00:43:49;;;;;;;6.70;2.70;;;16.90;99.90;;;15.96;90.13;101455.75;4929518;28;20034;-75
2022/06/18 00:46:43;;;;;;;5.28;2.92;;;16.90;99.90;;;15.88;90.66;101454.47;4907575;28;20035;-75
2022/06/18 00:49:30;;;;;;;5.25;2.72;;;16.80;99.90;;;15.85;90.81;101447.53;4936522;28;20023;-75
2022/06/18 00:52:11;;;;;;;4.75;2.60;;;16.80;99.90;;;15.86;91.26;101454.56;4936163;28;20069;-76
2022/06/18 00:54:50;;;;;;;6.20;2.45;;;16.80;99.90;;;15.82;90.91;101446.88;4918780;28;20035;-76
2022/06/18 00:57:51;;;;;;;5.60;2.80;;;16.80;99.90;;;15.83;91.36;101438.81;4924412;28;20083;-75
2022/06/18 01:00:45;;;;;;;6.47;2.60;;;16.70;99.90;;;15.78;91.30;101431.09;4877533;28;20026;-75
2022/06/18 01:03:29;;;;;;;6.68;2.85;;;16.70;99.90;;;15.78;90.96;101430.25;4936224;28;20042;-75
2022/06/18 01:06:01;;;;;;;5.90;2.33;;;16.70;99.90;;;15.78;91.22;101433.75;4944345;28;20675;-75
2022/06/18 01:08:32;;;;;;;10.57;3.00;;;16.70;99.90;;;15.76;91.20;101430.31;4917936;28;20023;-75
2022/06/18 01:11:02;;;;;;;6.20;2.80;;;16.70;99.90;;;15.71;91.46;101421.78;4938934;28;20034;-76
2022/06/18 01:13:35;;;;;;;6.68;2.75;;;16.60;99.90;;;15.66;91.60;101414.97;4936693;28;20051;-75
2022/06/18 01:16:01;;;;;;;7.45;3.10;;;16.60;99.90;;;15.57;92.64;101413.69;4918215;28;20037;-76
2022/06/18 01:18:29;;;;;;;6.88;2.80;;;16.60;99.90;;;15.57;92.65;101409.25;4943521;28;20035;-76
2022/06/18 01:21:34;;;;;;;10.80;3.10;;;16.50;99.90;;;15.54;92.67;101405.91;4919906;28;20061;-76
2022/06/18 01:24:38;;;;;;;11.48;3.33;;;16.50;99.90;;;15.45;93.65;101395.81;4949289;28;20066;-76
2022/06/18 01:27:07;;;;;;;4.85;2.97;;;16.40;99.90;;;15.43;93.89;101393.25;4926598;28;20038;-76
2022/06/18 01:29:34;;;;;;;6.80;2.95;;;16.40;99.90;;;15.35;94.16;101390.16;4922391;28;20030;-75
2022/06/18 01:32:01;;;;;;;7.25;3.00;;;16.30;99.90;;;15.30;94.97;101386.94;4928436;28;20112;-76
2022/06/18 01:34:27;;;;;;;8.70;3.10;;;16.30;99.90;;;15.27;94.91;101385.31;4932325;28;20049;-76
2022/06/18 01:36:56;;;;;;;10.48;3.45;;;16.30;99.90;;;15.23;95.44;101388.22;4958855;28;20085;-76
2022/06/18 01:39:30;;;;;;;5.95;3.10;;;16.30;99.90;;;15.20;95.63;101381.25;4947855;28;20462;-76
2022/06/18 01:42:11;;;;;;;6.93;3.85;;;16.20;99.90;;;15.18;96.19;101377.84;4936772;28;20030;-76
2022/06/18 01:44:41;;;;;;;5.90;2.90;;;16.20;99.90;;;15.19;95.66;101376.91;4938593;28;22839;-75
2022/06/18 01:47:25;;;;;;;7.22;3.15;;;16.20;99.90;;;15.17;95.26;101373.50;4914524;28;20442;-75
2022/06/18 01:50:08;;;;;;;9.32;2.88;;;16.10;99.90;;;15.15;95.51;101368.25;4941696;28;20064;-76
2022/06/18 01:52:43;;;;;;;6.47;3.10;;;16.10;99.90;;;15.15;95.37;101357.66;4947147;28;20161;-75
2022/06/18 01:55:38;;;;;;;6.13;3.10;;;16.10;99.90;;;15.18;94.67;101356.63;4918141;28;20034;-76
2022/06/18 01:58:35;;;;;;;9.02;3.30;;;16.10;99.90;;;15.16;93.76;101351.41;4957456;28;20110;-76
2022/06/18 02:01:03;;;;;;;6.68;3.22;;;16.00;99.90;;;15.13;93.85;101342.75;4939499;28;20033;-76
2022/06/18 02:03:29;;;;;;;6.90;3.42;;;16.00;99.90;;;15.10;94.44;101337.66;4929570;28;20454;-76
2022/06/18 02:05:55;;;;;;;7.78;3.25;;;16.00;99.90;;;15.08;94.32;101334.22;4911331;28;20046;-76
2022/06/18 02:08:21;;;;;;;3.40;2.83;;;16.00;99.90;;;15.06;94.54;101328.16;4911184;28;20506;-76
2022/06/18 02:11:08;;;;;;;10.52;3.15;;;16.00;99.90;;;15.03;94.57;101320.34;4910741;28;20031;-76
2022/06/18 02:13:53;;;;;;;4.75;2.92;;;15.90;99.90;;;15.01;94.74;101311.63;4951727;28;20077;-76
2022/06/18 02:16:25;;;;;;;6.80;3.40;;;15.90;99.90;;;15.02;94.69;101306.22;4937373;28;20035;-75
2022/06/18 02:18:51;;;;;;;10.32;3.40;;;16.00;99.90;;;15.06;94.67;101310.44;4912213;28;20039;-76
2022/06/18 02:21:22;;;;;;;12.25;3.45;;;16.00;99.90;;;15.11;94.62;101310.16;4951995;28;20077;-76
2022/06/18 02:23:54;;;;;;;8.20;2.72;;;16.00;99.90;;;15.14;94.19;101297.59;4945294;28;20491;-76
2022/06/18 02:26:25;;;;;;;7.13;3.25;;;16.00;99.90;;;15.19;93.67;101294.69;4931579;28;20045;-75
2022/06/18 02:28:52;;;;;;;10.15;3.00;;;16.10;99.90;;;15.22;93.34;101293.66;4927207;28;20348;-76
2022/06/18 02:31:24;;;;;;;5.05;3.00;;;16.10;99.90;;;15.26;92.78;101287.22;4935398;28;20026;-76
2022/06/18 02:34:02;;;;;;;5.53;2.97;;;16.20;99.90;;;15.28;92.72;101285.34;4935898;28;20130;-76
2022/06/18 02:36:40;;;;;;;6.60;2.75;;;16.20;99.90;;;15.28;92.33;101278.22;4924997;28;20454;-75
2022/06/18 02:39:36;;;;;;;3.35;2.63;;;16.20;99.90;;;15.28;92.16;101280.03;4939019;28;20042;-76
2022/06/18 02:42:11;;;;;;;4.70;2.72;;;16.20;99.90;;;15.28;92.39;101280.03;4923410;28;20069;-75
2022/06/18 02:44:44;;;;;;;3.28;2.63;;;16.20;99.90;;;15.28;92.52;101275.56;4913941;28;20022;-76
2022/06/18 02:47:12;;;;;;;3.47;2.88;;;16.20;99.90;;;15.30;92.31;101276.34;4927391;28;20019;-76
2022/06/18 02:49:50;;;;;;;5.45;2.92;;;16.30;99.90;;;15.38;91.72;101279.41;4935444;28;20026;-75
2022/06/18 02:52:16;;;;;;;8.07;3.17;;;16.20;99.90;;;15.39;91.66;101286.41;4927349;28;20049;-75
2022/06/18 02:54:42;;;;;;;9.27;2.90;;;16.30;99.90;;;15.40;91.61;101276.69;4948817;28;20052;-76
2022/06/18 02:57:23;;;;;;;5.55;2.67;;;16.30;99.90;;;15.43;91.79;101279.16;4911882;28;20157;-75
2022/06/18 02:59:49;;;;;;;17.02;2.80;;;16.30;99.90;;;15.43;92.26;101280.94;4924290;28;20041;-76
2022/06/18 03:02:14;;;;;;;7.28;2.95;;;16.30;99.90;;;15.44;92.71;101282.66;4945576;28;20499;-76
2022/06/18 03:04:40;;;;;;;;;;;16.30;99.90;;;15.43;92.47;101286.25;4932718;28;20026;-76
2022/06/18 03:07:06;;;;;;;7.05;3.08;;;16.30;99.90;;;15.42;92.19;101284.53;4921386;28;19906;-76
2022/06/18 03:12:06;;;;;;;;;;;16.30;99.90;;;15.37;92.58;101277.69;4951723;28;20043;-76
2022/06/18 03:12:17;;;;;;;4.10;2.30;;;16.20;99.90;;;15.33;92.37;101277.97;4941470;28;22051;-76
2022/06/18 03:14:43;;;;;;;4.07;2.30;;;16.20;99.90;;;15.28;92.19;101272.91;4936827;28;20081;-76
2022/06/18 03:17:11;;;;;;;;;;;16.10;99.90;;;15.17;93.24;101259.44;4924299;28;20110;-78
2022/06/18 03:19:41;;;;;;;4.18;2.72;;;16.00;99.90;;;15.13;93.06;101264.03;4949968;28;19913;-77
2022/06/18 03:22:16;;;;;;;6.30;2.60;;;16.00;99.90;;;15.15;92.75;101270.13;4914379;28;20045;-76
2022/06/18 03:24:42;;;;;;;7.23;2.70;;;16.10;99.90;;;15.24;92.41;101271.38;4933909;28;20238;-75
2022/06/18 03:27:10;;;;;;;5.97;2.50;;;16.10;99.90;;;15.31;91.31;101269.22;4929277;28;20172;-75
2022/06/18 03:29:36;;;;;;;7.47;2.60;;;16.20;99.90;;;15.41;90.71;101257.16;4957840;28;20034;-75
2022/06/18 03:32:03;;;;;;;5.95;2.40;;;16.30;99.90;;;15.52;90.15;101264.47;4907774;28;20044;-76
2022/06/18 03:34:29;;;;;;;7.18;2.80;;;16.40;99.90;;;15.63;89.11;101262.03;4933718;28;20033;-75
2022/06/18 03:36:58;;;;;;;3.65;2.25;;;16.50;99.90;;;15.76;88.24;101257.72;4942604;28;20022;-76
2022/06/18 03:39:25;;;;;;;5.57;2.42;;;16.80;99.90;;;16.16;86.42;101254.47;4923285;28;20483;-76
2022/06/18 03:41:51;;;;;;;6.65;2.35;;;17.90;99.90;;;17.27;81.74;101253.59;4933841;28;20033;-76
2022/06/18 03:44:17;;;;;;;4.75;2.10;;;19.00;99.90;;;18.37;75.86;101255.00;4912875;28;20035;-76
2022/06/18 03:46:45;;;;;;;9.25;2.50;;;20.00;99.90;;;19.50;70.60;101261.84;4938068;28;20026;-76
2022/06/18 03:49:26;;;;;;;4.38;2.50;;;20.40;99.90;;;19.66;67.72;101259.72;4912262;28;20039;-75
2022/06/18 03:51:54;;;;;;;6.47;2.30;;;;;;;19.01;68.60;101244.19;4913640;28;20046;-75
2022/06/18 03:54:20;;;;;;;10.75;2.88;;;19.50;99.90;;;18.42;70.38;101243.06;4931642;28;20033;-77
2022/06/18 03:56:45;;;;;;;3.47;2.20;;;19.10;99.90;;;17.98;71.90;101235.53;4922247;28;20031;-76
2022/06/18 03:59:11;;;;;;;5.40;2.13;;;18.70;99.90;;;17.61;73.27;101236.22;4956011;28;20439;-75
2022/06/18 04:01:40;;;;;;;7.00;1.98;;;18.40;99.90;;;17.37;73.69;101220.09;4918876;28;20030;-75
2022/06/18 04:04:09;;;;;;;5.13;2.33;;;18.20;99.90;;;17.18;74.49;101233.78;4906768;28;20037;-76
2022/06/18 04:06:38;;;;;;;10.27;2.25;;;18.10;99.90;;;17.10;75.08;101224.59;4921852;28;20089;-76
2022/06/18 04:09:04;;;;;;;4.55;2.28;;;17.90;99.90;;;17.06;75.70;101234.56;4912578;28;20128;-76
2022/06/18 04:11:31;;;;;;;4.03;2.53;;;17.80;99.90;;;16.98;76.08;101221.78;4938720;28;20038;-76
2022/06/18 04:13:57;;;;;;;4.10;2.20;;;17.70;99.90;;;17.00;76.42;101225.22;4922768;28;20037;-75
2022/06/18 04:16:26;;;;;;;3.78;2.17;;;18.50;99.90;;;18.67;72.98;101241.28;4939622;28;20033;-76
2022/06/18 04:18:52;;;;;;;2.60;2.17;;;20.10;99.90;;;20.96;64.30;101252.25;4938423;28;20031;-76
2022/06/18 04:21:18;;;;;;;6.30;2.20;;;21.80;99.90;;;22.90;58.18;101263.28;4950444;28;20451;-76
2022/06/18 04:23:44;;;;;;;;;;;22.40;99.90;;;24.72;53.61;101264.13;4959698;28;20098;-75
2022/06/18 04:26:12;;;;;;;6.25;2.10;;;24.90;99.90;;;26.36;49.62;101280.84;4936974;28;20642;-75
2022/06/18 04:28:38;;;;;;;5.00;1.83;;;26.20;97.40;;;27.44;46.08;101280.19;4905929;28;20030;-76
2022/06/18 04:31:05;;;;;;;5.35;2.20;;;26.60;96.50;;;27.04;45.97;101285.34;4947635;28;20022;-76
2022/06/18 04:33:31;;;;;;;7.50;2.15;;;26.10;96.30;;;25.52;48.35;101271.50;4928643;28;20046;-76
2022/06/18 04:35:58;;;;;;;3.95;2.00;;;25.30;96.30;;;24.35;50.35;101267.69;4940010;28;20062;-76
2022/06/18 04:38:24;;;;;;;4.55;2.40;;;25.40;96.70;;;25.80;48.42;101285.72;4937881;28;20030;-76
2022/06/18 04:40:50;;;;;;;8.52;2.05;;;25.60;96.10;;;25.77;47.78;101277.94;4918761;28;20038;-76
2022/06/18 04:43:17;;;;;;;6.20;2.00;;;25.20;96.40;;;24.61;50.00;101274.28;4915342;28;20396;-76
2022/06/18 04:45:42;;;;;;;5.65;1.90;;;24.60;97.00;;;23.57;52.42;101256.28;4929805;28;20026;-76
2022/06/18 04:48:09;;;;;;;4.15;2.17;;;23.80;97.70;;;22.81;54.29;101253.41;4931534;28;20034;-76
2022/06/18 04:50:38;;;;;;;3.75;1.77;;;23.20;98.60;;;22.23;55.59;101236.13;4918578;28;20096;-76
2022/06/18 04:53:07;;;;;;;6.78;1.95;;;22.70;99.10;;;21.77;56.56;101229.38;4957153;28;20100;-76
2022/06/18 04:55:35;;;;;;;5.30;1.92;;;22.30;99.70;;;21.43;57.83;101223.38;4930262;28;20117;-76
2022/06/18 04:58:02;;;;;;;6.15;2.00;;;21.90;99.90;;;21.22;58.37;101217.94;4918058;28;20030;-76
2022/06/18 05:00:28;;;;;;;2.90;1.92;;;21.80;99.90;;;21.12;58.35;101219.69;4939857;28;20050;-76
2022/06/18 05:02:53;;;;;;;3.92;2.00;;;21.50;99.90;;;20.84;59.52;101219.28;4923095;28;20168;-76
2022/06/18 05:05:22;;;;;;;;;;;21.50;99.90;;;20.68;59.54;101220.56;4918021;28;20027;-76
2022/06/18 05:07:48;;;;;;;8.43;2.05;;;21.30;99.90;;;20.68;60.06;101215.19;4970987;28;20398;-75
2022/06/18 05:10:15;;;;;;;4.95;1.80;;;21.20;99.90;;;20.78;60.11;101206.44;4938300;28;20026;-76
2022/06/18 05:12:41;;;;;;;6.85;2.22;;;21.20;99.90;;;20.75;61.00;101207.50;4921772;28;20058;-75
2022/06/18 05:15:11;;;;;;;7.78;2.22;;;21.20;99.90;;;20.80;62.19;101199.97;4939697;28;20058;-76
2022/06/18 05:17:39;;;;;;;3.85;1.85;;;21.20;99.90;;;20.88;61.02;101202.88;4921809;28;20031;-77
2022/06/18 05:20:06;;;;;;;4.20;1.90;;;21.30;99.90;;;21.01;60.91;101210.72;4945005;28;20034;-75
2022/06/18 05:22:32;;;;;;;10.07;1.90;;;21.40;99.90;;;21.15;60.28;101206.91;4939386;28;20495;-76
2022/06/18 05:24:58;;;;;;;7.75;2.33;;;21.60;99.90;;;21.63;59.39;101210.94;4921526;28;20031;-76
2022/06/18 05:27:33;;;;;;;5.97;1.92;;;22.80;99.90;;;25.93;49.64;101232.22;4938110;28;20158;-76
2022/06/18 05:30:01;;;;;;;7.38;2.20;;;24.90;98.90;;;28.86;43.62;101260.53;4933910;28;20030;-76
2022/06/18 05:32:27;;;;;;;3.70;2.15;;;26.80;96.60;;;30.77;40.17;101259.38;4937632;28;20042;-76
2022/06/18 05:34:54;;;;;;;3.28;1.80;;;28.40;94.80;;;30.82;38.68;101262.34;4936974;28;20026;-76
2022/06/18 05:37:28;;;;;;;6.47;2.05;;;29.00;92.80;;;30.95;38.61;101273.44;4941039;28;20463;-76
2022/06/18 05:39:54;;;;;;;2.83;1.60;;;30.00;92.50;;;33.21;35.21;101290.44;4937176;28;20034;-76
2022/06/18 05:42:21;;;;;;;5.15;1.98;;;31.20;90.30;;;34.53;33.10;101296.81;4947188;28;20046;-76
2022/06/18 05:44:47;;;;;;;3.80;1.80;;;32.20;87.00;;;35.31;31.68;101303.19;4928797;28;20035;-76
2022/06/18 05:47:20;;;;;;;7.72;1.75;;;33.10;85.60;;;36.24;30.31;101307.84;4920762;28;20032;-76
2022/06/18 05:49:51;;;;;;;7.05;1.75;;;33.90;84.00;;;36.91;29.61;101304.31;4925990;28;20364;-76
2022/06/18 05:52:20;;;;;;;4.97;1.83;;;34.70;80.10;;;37.61;28.50;101320.19;4928268;28;21243;-76
2022/06/18 05:54:46;;;;;;;4.57;1.83;;;35.30;78.40;;;37.82;28.43;101312.41;4909936;28;20105;-76
2022/06/18 05:57:16;;;;;;;6.65;1.55;;;35.70;76.90;;;38.12;27.76;101321.41;4929351;28;20423;-76
2022/06/18 05:59:41;;;;;;;5.10;1.55;;;36.10;73.90;;;38.21;27.67;101327.38;4904237;28;20086;-76
2022/06/18 06:02:10;;;;;;;2.10;1.50;;;36.30;75.10;;;38.33;27.33;101328.16;4933455;28;20471;-76
2022/06/18 06:04:39;;;;;;;6.35;1.92;;;36.60;74.40;;;38.53;27.10;101325.06;4928749;28;20039;-76
2022/06/18 06:07:14;;;;;;;5.85;1.50;;;36.80;72.70;;;38.61;26.33;101326.59;4944821;28;20054;-76
2022/06/18 06:12:25;;;;;;;2.38;1.50;;;36.90;71.60;;;38.59;26.50;101342.50;4929345;28;20172;-75
2022/06/18 06:14:50;;;;;;;5.03;1.50;;;37.00;70.30;;;38.62;26.28;101336.53;4897878;28;20042;-76
2022/06/18 06:17:22;;;;;;;2.35;1.55;;;37.10;70.20;;;38.84;26.40;101344.94;4928777;28;20019;-76
2022/06/18 06:19:48;;;;;;;5.97;1.75;;;37.30;70.30;;;38.87;26.19;101344.44;4952795;28;20035;-76
2022/06/18 06:22:14;;;;;;;4.22;1.67;;;37.50;69.20;;;39.13;25.81;101348.53;4905675;28;20086;-76
2022/06/18 06:24:41;;;;;;;9.63;1.80;;;37.70;68.50;;;39.09;25.96;101347.34;4921110;28;20114;-76
2022/06/18 06:27:08;;;;;;;5.10;1.90;;;37.80;68.20;;;39.14;25.96;101335.63;4924263;28;20396;-76
2022/06/18 06:29:34;;;;;;;3.83;1.38;;;37.90;68.30;;;39.17;25.64;101329.59;4921706;28;20030;-77
2022/06/18 06:32:00;;;;;;;3.13;1.40;;;38.00;66.50;;;39.19;25.40;101324.69;4980528;28;20049;-76
2022/06/18 06:34:26;;;;;;;4.82;1.30;;;38.10;66.90;;;39.40;25.34;101333.31;4889256;28;20035;-76
2022/06/18 06:36:52;;;;;;;8.00;1.52;;;38.30;65.90;;;39.52;25.13;101328.56;4927575;28;20034;-76
2022/06/18 06:39:18;;;;;;;4.60;1.50;;;38.50;67.10;;;39.67;25.10;101331.56;4927033;28;20055;-76
2022/06/18 06:41:44;;;;;;;3.03;1.60;;;38.60;64.70;;;39.70;24.75;101327.47;4954647;28;20037;-76
2022/06/18 06:44:13;;;;;;;5.53;1.58;;;38.70;64.60;;;39.50;24.79;101331.56;4934642;28;20035;-76
2022/06/18 06:46:39;;;;;;;9.48;1.63;;;38.70;65.30;;;39.57;24.86;101320.38;4952143;28;24818;-77
2022/06/18 06:49:05;;;;;;;5.05;1.60;;;38.70;64.00;;;39.41;25.01;101316.56;4934100;28;20038;-76
2022/06/18 06:51:35;;;;;;;4.38;1.60;;;38.80;63.80;;;39.38;25.18;101312.34;4929475;28;20031;-76
2022/06/18 06:54:00;;;;;;;4.03;1.60;;;38.70;64.30;;;39.36;24.97;101311.75;4902745;28;20051;-76
2022/06/18 06:59:11;;;;;;;3.97;2.00;;;38.90;64.80;;;39.53;24.74;101292.50;4903943;28;20038;-75
2022/06/18 07:01:37;;;;;;;4.65;1.85;;;39.00;62.20;;;39.36;24.91;101300.75;4936848;28;20097;-76
2022/06/18 07:04:06;;;;;;;5.15;1.80;;;39.00;64.20;;;39.75;25.02;101289.00;4929637;28;20038;-76
2022/06/18 07:06:35;;;;;;;4.70;1.60;;;39.10;63.60;;;39.85;24.65;101285.56;4936095;28;20026;-76
2022/06/18 07:09:01;;;;;;;4.53;1.50;;;39.10;62.10;;;39.46;24.66;101285.50;4935199;28;20035;-76
2022/06/18 07:11:26;;;;;;;7.00;1.70;;;39.00;61.70;;;39.43;25.01;101273.06;4941799;28;20035;-76
2022/06/18 07:13:52;;;;;;;2.55;1.50;;;39.00;62.80;;;39.31;24.88;101267.63;4954838;28;20038;-76
2022/06/18 07:16:18;;;;;;;2.75;1.50;;;38.90;62.70;;;39.12;25.14;101258.75;4933625;28;20050;-76
2022/06/18 07:18:44;;;;;;;7.05;1.80;;;38.80;62.70;;;39.09;25.43;101247.41;4917166;28;20102;-76
2022/06/18 07:21:15;;;;;;;5.82;1.70;;;38.70;63.80;;;39.12;26.13;101246.94;4905502;28;20109;-78
2022/06/18 07:23:41;;;;;;;3.20;1.42;;;38.70;63.40;;;39.09;25.81;101239.16;4917885;28;20060;-75
2022/06/18 07:26:10;;;;;;;9.73;2.15;;;38.80;63.30;;;39.30;25.63;101232.88;4943245;28;20095;-74
2022/06/18 07:28:36;;;;;;;5.00;1.88;;;38.90;63.50;;;39.46;25.45;101230.41;4905474;28;20054;-74
2022/06/18 07:31:04;;;;;;;3.58;1.52;;;39.10;63.10;;;39.76;24.97;101230.00;4944170;28;20114;-74
2022/06/18 07:33:33;;;;;;;3.17;1.75;;;39.20;62.80;;;39.75;25.25;101226.44;4936693;28;20086;-74
2022/06/18 07:35:59;;;;;;;3.70;1.30;;;39.30;62.90;;;39.75;25.13;101220.91;4935614;28;20032;-74
2022/06/18 07:38:25;;;;;;;3.03;1.50;;;39.30;62.30;;;39.61;24.88;101221.53;4932577;28;20475;-74
2022/06/18 07:40:54;;;;;;;3.00;1.30;;;39.20;62.00;;;39.53;25.08;101209.03;4947515;28;20406;-74
2022/06/18 07:43:40;;;;;;;3.85;1.70;;;39.10;62.30;;;39.43;24.88;101209.69;4933504;28;20035;-74
2022/06/18 07:46:10;;;;;;;9.13;1.57;;;38.90;61.00;;;39.11;25.01;101207.50;4931997;28;20027;-74
2022/06/18 07:48:39;;;;;;;8.70;1.80;;;38.70;61.70;;;38.94;25.59;101199.28;4937481;28;20266;-74
2022/06/18 07:51:06;;;;;;;8.73;1.50;;;38.70;62.30;;;39.04;25.42;101190.34;4929373;28;20030;-74
2022/06/18 07:53:33;;;;;;;5.63;1.38;;;38.70;62.00;;;39.21;25.37;101192.25;4926133;28;20048;-74
2022/06/18 07:55:59;;;;;;;3.83;1.60;;;38.80;62.20;;;39.48;25.15;101196.00;4962986;28;20026;-72
2022/06/18 07:58:29;;;;;;;5.32;1.70;;;38.90;61.20;;;39.25;25.24;101194.25;4935170;28;20019;-74
2022/06/18 08:00:56;;;;;;;5.13;1.55;;;38.70;61.30;;;39.09;25.69;101187.66;4910703;28;20438;-74
2022/06/18 08:03:23;;;;;;;7.63;1.65;;;38.70;62.40;;;39.30;25.53;101186.06;4948400;28;20039;-77
2022/06/18 08:05:49;;;;;;;12.43;1.80;;;38.60;61.80;;;39.13;25.25;101182.50;4948154;28;20105;-75
2022/06/18 08:08:16;;;;;;;3.80;1.60;;;38.50;62.40;;;38.94;26.08;101184.63;4940759;28;20109;-76
2022/06/18 08:10:47;;;;;;;6.45;1.60;;;38.40;63.20;;;38.96;26.09;101176.97;4948324;28;20039;-76
2022/06/18 08:13:12;;;;;;;6.93;1.70;;;38.30;63.10;;;38.92;26.22;101168.38;4939193;28;20070;-75
2022/06/18 08:15:38;;;;;;;3.58;1.60;;;38.20;62.90;;;38.69;26.36;101168.53;4973818;28;20470;-75
2022/06/18 08:18:05;;;;;;;7.93;2.03;;;38.10;62.40;;;38.24;26.68;101164.66;4951241;28;20514;-75
2022/06/18 08:20:32;;;;;;;4.65;1.65;;;37.80;62.90;;;37.75;27.41;101150.41;4981296;28;20086;-76
2022/06/18 08:22:59;;;;;;;3.20;1.70;;;37.40;62.90;;;37.20;27.66;101150.81;4951797;28;20589;-75
2022/06/18 08:25:29;;;;;;;4.18;1.77;;;37.00;64.20;;;36.95;28.59;101133.44;4964271;28;20042;-75
2022/06/18 08:27:59;;;;;;;4.82;1.70;;;36.60;63.90;;;36.31;28.64;101124.13;4927058;28;20037;-76
2022/06/18 08:30:26;;;;;;;6.03;2.40;;;36.20;64.30;;;35.77;29.50;101118.47;4939074;28;20038;-76
2022/06/18 08:32:52;;;;;;;6.95;2.50;;;35.70;65.70;;;35.24;29.97;101111.63;4947874;28;20093;-75
2022/06/18 08:35:18;;;;;;;6.40;1.80;;;35.30;66.20;;;34.90;30.76;101107.50;4947104;28;20066;-76
2022/06/18 08:37:44;;;;;;;13.65;2.10;;;35.10;68.20;;;34.77;31.24;101097.50;4928790;28;20038;-76
2022/06/18 08:40:37;;;;;;;8.05;1.80;;;35.00;67.80;;;34.62;31.22;101089.59;4945431;28;20439;-75
2022/06/18 08:43:14;;;;;;;5.20;1.70;;;34.80;69.60;;;34.50;32.31;101078.56;4936001;28;20026;-76
2022/06/18 08:46:07;;;;;;;4.97;1.80;;;34.70;69.10;;;34.51;31.81;101076.66;4963705;28;20031;-75
2022/06/18 08:48:52;;;;;;;7.97;1.50;;;34.70;69.00;;;34.40;32.16;101070.00;4924998;28;20490;-75
2022/06/18 08:51:42;;;;;;;4.43;1.88;;;34.60;68.60;;;34.12;32.05;101067.66;4948490;28;20030;-76
2022/06/18 08:54:36;;;;;;;6.90;2.05;;;34.40;69.10;;;34.06;32.61;101049.38;4948066;28;20122;-75
2022/06/18 08:57:32;;;;;;;4.22;2.10;;;34.30;70.50;;;34.05;33.06;101051.28;4916282;28;20119;-75
2022/06/18 09:00:16;;;;;;;5.72;2.10;;;34.20;69.80;;;33.90;32.53;101053.47;4949205;28;20113;-76
2022/06/18 09:03:19;;;;;;;3.92;1.85;;;34.10;69.60;;;33.81;33.70;101052.03;4963088;28;20063;-75
2022/06/18 09:06:48;;;;;;;14.50;1.90;;;34.10;70.10;;;33.77;33.08;101039.88;4899968;28;20027;-75
2022/06/18 09:09:25;;;;;;;7.38;1.83;;;34.10;70.80;;;33.82;33.60;101042.78;4899642;28;20062;-76
2022/06/18 09:12:42;;;;;;;4.18;2.00;;;34.10;71.40;;;33.82;33.56;101037.31;4899304;29;20513;-76
2022/06/18 09:15:28;;;;;;;7.03;2.28;;;34.10;70.40;;;33.75;33.04;101039.25;4838172;28;20115;-76
2022/06/18 09:18:06;;;;;;;12.43;2.05;;;34.00;71.60;;;33.78;33.98;101036.06;4955313;28;20027;-76
2022/06/18 09:20:40;;;;;;;12.40;2.17;;;34.10;71.10;;;33.89;33.15;101035.41;4937757;28;20121;-74
2022/06/18 09:23:16;;;;;;;8.02;2.10;;;34.10;70.10;;;33.92;32.98;101034.97;4943034;28;20073;-74
2022/06/18 09:25:52;;;;;;;7.55;2.17;;;34.10;70.50;;;33.86;33.37;101038.56;4936852;28;20030;-75
2022/06/18 09:29:01;;;;;;;8.90;2.10;;;34.10;71.00;;;33.84;33.38;101037.94;4944773;28;20109;-75
2022/06/18 09:31:45;;;;;;;11.13;2.15;;;34.10;71.90;;;33.89;33.59;101030.78;4913344;28;20281;-75
2022/06/18 09:34:53;;;;;;;7.38;2.25;;;34.10;71.10;;;33.92;33.64;101035.78;4916318;28;20122;-74
2022/06/18 09:37:48;;;;;;;7.25;2.33;;;34.10;70.20;;;33.84;32.55;101032.47;4923793;28;20015;-75
2022/06/18 09:40:38;;;;;;;11.00;2.40;;;34.10;72.10;;;33.86;33.70;101031.19;4954239;28;20031;-75
2022/06/18 09:43:57;;;;;;;8.30;2.45;;;34.10;73.00;;;33.97;33.58;101026.09;4923307;28;20495;-74
2022/06/18 09:46:54;;;;;;;5.28;2.13;;;34.20;71.90;;;34.13;33.74;101035.69;4872855;29;20036;-74
2022/06/18 09:49:23;;;;;;;5.95;1.83;;;34.30;72.00;;;34.24;32.76;101026.81;4893127;29;20039;-75
2022/06/18 09:52:06;;;;;;;8.77;2.78;;;34.40;71.30;;;34.27;33.18;101008.06;4947632;28;20044;-74
2022/06/18 09:54:51;;;;;;;8.75;2.25;;;34.40;70.40;;;34.11;33.14;101001.25;4947695;28;20050;-74
2022/06/18 09:57:32;;;;;;;6.22;2.10;;;34.40;72.10;;;34.09;33.53;101006.06;4936889;28;20034;-80
2022/06/18 10:00:14;;;;;;;5.45;2.60;;;34.30;72.00;;;33.83;34.25;100995.31;4928609;28;20487;-76
2022/06/18 10:09:03;;;;;;;6.75;2.42;;;33.90;72.80;;;33.68;34.78;101007.34;4937160;28;20084;-75
2022/06/18 10:11:33;;;;;;;7.40;2.40;;;34.00;72.70;;;33.88;34.30;101003.69;4944875;28;20066;-76
2022/06/18 10:14:20;;;;;;;7.47;1.90;;;34.10;73.10;;;33.93;34.00;101009.31;4925769;28;20149;-76
2022/06/18 10:17:12;;;;;;;5.22;2.13;;;34.00;72.20;;;33.47;34.44;101004.91;4964170;28;20034;-75
2022/06/18 10:20:11;;;;;;;8.00;2.47;;;33.70;72.90;;;33.26;36.26;100997.84;4918742;28;20524;-75
2022/06/18 10:22:51;;;;;;;8.35;2.40;;;33.60;72.90;;;33.26;35.33;101004.16;4950833;28;20030;-75
2022/06/18 10:25:45;;;;;;;10.13;2.30;;;33.50;73.90;;;33.18;35.42;101001.66;4921667;28;20076;-75
2022/06/18 10:28:40;;;;;;;11.15;2.72;;;33.60;73.50;;;33.29;35.20;101002.88;4940684;28;20109;-76
2022/06/18 10:31:37;;;;;;;11.35;2.70;;;33.50;73.50;;;33.10;35.64;101004.59;4940125;28;20479;-75
2022/06/18 10:34:39;;;;;;;5.50;2.10;;;33.30;73.10;;;32.65;35.31;101007.16;4905920;28;20049;-76
2022/06/18 10:37:44;;;;;;;7.28;2.50;;;33.00;73.70;;;32.60;36.72;100990.59;4921668;28;20514;-76
2022/06/18 10:40:53;;;;;;;5.88;2.40;;;33.00;73.20;;;32.55;36.00;100991.25;4952692;28;20636;-75
2022/06/18 10:43:56;;;;;;;8.70;2.67;;;33.00;74.60;;;32.73;36.64;100992.47;4935150;28;20114;-75
2022/06/18 10:46:23;;;;;;;12.65;2.47;;;33.10;75.70;;;32.92;37.08;100993.47;4941285;28;20034;-76
2022/06/18 10:49:04;;;;;;;11.05;2.65;;;33.30;75.20;;;33.25;35.90;100994.28;4935277;28;20038;-75
2022/06/18 10:51:48;;;;;;;7.32;2.70;;;33.50;74.50;;;33.47;36.09;101000.28;4909150;28;20031;-76